Home   Weather   India   Buxar   Past weeks
Flag for India

Past Weather in Buxar, Bihar, India — Yesterday and Last 2 Weeks

Currently: 75 °F. Haze. (Weather station: Lucknow / Amausi, India). See more current weather

Past Weather in Buxar — Graph

°F

Buxar Temperature Yesterday

Maximum temperature yesterday: 100 °F (at 1:00 pm)
Minimum temperature yesterday: 72 °F (at 5:00 am)
Average temperature yesterday: 88 °F

High & Low Weather Summary for the Past Weeks

 TemperatureHumidityPressure
High104 °F (Apr 13, 3:00 pm)79% (Apr 8, 1:30 am)29.92 "Hg (Apr 8, 1:30 am)
Low66 °F (Apr 5, 6:00 am)11% (Apr 11, 5:00 pm)29.62 "Hg (Apr 15, 5:00 pm)
Average87 °F34%29.76 "Hg
* Reported Apr 5 6:00 am — Apr 20 6:00 am, Buxar. Weather by CustomWeather, © 2021

Note: Actual official high and low records may vary slightly from our data, if they occured in-between our weather recording intervals... More about our weather records

Buxar Weather History for the Previous 24 Hours

Scroll right to see more
 ConditionsComfort  
Time TempWeatherWind HumidityBarometerVisibility
6:00 am
Tue, Apr 20
72 °FHaze.No wind50%29.68 "Hg2 mi
5:30 am73 °FHaze.No wind50%29.65 "Hg2 mi
5:00 am73 °FHaze.No wind50%29.65 "Hg2 mi
4:30 am73 °FHaze.No wind50%29.65 "Hg2 mi
4:00 am73 °FHaze.No wind50%29.65 "Hg2 mi
3:30 am75 °FHaze.No wind47%29.65 "Hg2 mi
3:00 am75 °FHaze.No wind47%29.65 "Hg2 mi
2:30 am77 °FHaze.No wind44%29.65 "Hg2 mi
2:00 am75 °FHaze.No wind47%29.65 "Hg2 mi
1:30 am75 °FHaze.No wind44%29.65 "Hg2 mi
1:00 am75 °FHaze.No wind47%29.65 "Hg2 mi
12:30 am77 °FHaze.No wind44%29.65 "Hg2 mi
12:00 am79 °FHaze.No wind39%29.68 "Hg2 mi
11:30 pm
Mon, Apr 19
79 °FHaze.No wind39%29.68 "Hg2 mi
11:00 pm81 °FHaze.No wind39%29.68 "Hg2 mi
10:30 pm82 °FHaze.No wind37%29.68 "Hg2 mi
10:00 pm82 °FHaze.No wind37%29.68 "Hg2 mi
9:30 pm84 °FHaze.No wind33%29.68 "Hg2 mi
9:00 pm86 °FHaze.No wind31%29.65 "Hg2 mi
8:30 pm88 °FHaze.No wind31%29.65 "Hg2 mi
8:00 pm91 °FHaze.No wind26%29.65 "Hg2 mi
7:30 pm93 °FHaze.2 mph24%29.65 "Hg2 mi
7:00 pm93 °FHaze.3 mph24%29.65 "Hg3 mi
6:30 pm95 °FHaze.5 mph23%29.62 "Hg3 mi
6:00 pm97 °FHaze.7 mph20%29.62 "Hg3 mi
5:30 pm100 °FHaze.9 mph17%29.62 "Hg3 mi
5:00 pm99 °FLow level haze.15 mph19%29.65 "Hg3 mi
4:30 pm100 °FLow level haze.15 mph18%29.65 "Hg3 mi
4:00 pm100 °FLow level haze.17 mph18%29.65 "Hg3 mi
3:30 pm100 °FLow level haze.18 mph18%29.65 "Hg3 mi
3:00 pm100 °FLow level haze.17 mph20%29.65 "Hg3 mi
2:30 pm100 °FLow level haze.17 mph20%29.68 "Hg3 mi
2:00 pm100 °FHaze.16 mph20%29.68 "Hg3 mi
1:30 pm100 °FHaze.15 mph20%29.68 "Hg3 mi
1:00 pm100 °FHaze.15 mph20%29.71 "Hg3 mi
12:30 pm99 °FHaze.14 mph22%29.74 "Hg3 mi
12:00 pm97 °FHaze.10 mph25%29.74 "Hg3 mi
11:30 am95 °FHaze.10 mph26%29.77 "Hg3 mi
11:00 am95 °FHaze.12 mph26%29.77 "Hg3 mi
10:00 am93 °FHaze.9 mph30%29.77 "Hg3 mi
9:00 am90 °FHaze.9 mph33%29.77 "Hg2 mi
8:30 am86 °FHaze.9 mph40%29.77 "Hg2 mi
8:00 am82 °FHaze.7 mph42%29.77 "Hg2 mi
7:30 am79 °FHaze.6 mph48%29.74 "Hg2 mi
7:00 am77 °FHaze.6 mph47%29.74 "Hg2 mi
Weather by CustomWeather, © 2021

See weather overview